Time;durP1;ratioP1;P1;durP2;ratioP2;P2;SDS_P1;SDS_P2;PMS_P1;PMS_P2;Temp;Humidity;BMP_temperature;BMP_pressure;BME280_temperature;BME280_humidity;BME280_pressure;Samples;Min_cycle;Max_cycle;Signal;HPM_P1;HPM_P2
2021/06/06 00:01:24;;;;;;;5.75;5.00;;;;;;;20.03;50.04;99659.28;5071819;28;20024;-76
2021/06/06 00:03:53;;;;;;;5.65;4.80;;;;;;;19.85;49.77;99643.34;5071894;28;20024;-76
2021/06/06 00:06:25;;;;;;;5.47;5.00;;;;;;;20.09;49.71;99706.59;5071942;28;20186;-75
2021/06/06 00:08:51;;;;;;;5.82;4.97;;;;;;;19.93;49.69;99680.50;5071879;28;20036;-76
2021/06/06 00:11:22;;;;;;;5.07;4.57;;;;;;;19.97;49.60;99695.88;5071695;28;20036;-76
2021/06/06 00:13:50;;;;;;;6.70;5.32;;;;;;;19.19;49.46;99572.22;5072107;28;20477;-76
2021/06/06 00:16:22;;;;;;;10.07;5.05;;;;;;;19.84;49.50;99677.38;5071840;28;20056;-76
2021/06/06 00:18:48;;;;;;;5.25;4.82;;;;;;;19.90;49.57;99689.00;5071586;28;20032;-75
2021/06/06 00:21:14;;;;;;;5.78;4.88;;;;;;;19.22;49.75;99596.66;5071693;28;20032;-76
2021/06/06 00:23:39;;;;;;;5.00;4.60;;;;;;;19.74;49.77;99687.88;5071656;28;20511;-77
2021/06/06 00:26:07;;;;;;;5.72;5.20;;;;;;;19.80;50.05;99694.97;5070097;28;20025;-76
2021/06/06 00:28:32;;;;;;;5.95;5.32;;;;;;;19.45;49.96;99638.72;5071396;28;20020;-76
2021/06/06 00:31:03;;;;;;;6.85;5.13;;;;;;;19.77;50.35;99691.94;5071282;28;20568;-76
2021/06/06 00:33:28;;;;;;;6.68;5.60;;;;;;;19.52;50.46;99652.81;5071427;28;20020;-76
2021/06/06 00:35:54;;;;;;;5.72;5.22;;;;;;;19.71;50.33;99684.84;5071598;28;20408;-75
2021/06/06 00:38:20;;;;;;;5.32;4.82;;;;;;;19.34;50.17;99618.91;5071402;28;20036;-77
2021/06/06 00:40:46;;;;;;;6.63;5.28;;;;;;;19.81;50.24;99687.75;5071134;28;20024;-77
2021/06/06 00:43:11;;;;;;;9.30;5.18;;;;;;;19.72;50.13;99670.41;5070969;28;20027;-77
2021/06/06 00:45:38;;;;;;;6.32;5.45;;;;;;;19.77;50.23;99690.06;5071268;28;20535;-75
2021/06/06 00:48:06;;;;;;;5.88;5.03;;;;;;;19.66;50.21;99674.81;5071490;28;20056;-76
2021/06/06 00:50:41;;;;;;;6.43;5.03;;;;;;;19.30;50.39;99617.72;5071305;28;20053;-75
2021/06/06 00:53:28;;;;;;;5.88;5.18;;;;;;;19.59;50.37;99680.31;5071517;28;20024;-77
2021/06/06 00:55:54;;;;;;;6.28;5.07;;;;;;;19.59;50.64;99679.50;5067649;28;20029;-75
2021/06/06 00:58:20;;;;;;;7.57;5.30;;;;;;;18.97;50.53;99591.53;5071200;28;20025;-76
2021/06/06 01:00:51;;;;;;;5.15;4.75;;;;;;;19.58;50.36;99673.31;5071196;28;20099;-77
2021/06/06 01:03:18;;;;;;;5.18;4.60;;;;;;;19.38;50.30;99642.56;5071319;28;20031;-76
2021/06/06 01:06:05;;;;;;;7.70;5.25;;;;;;;19.68;50.40;99686.13;5071001;28;20459;-76
2021/06/06 01:08:32;;;;;;;5.40;4.90;;;;;;;19.63;50.26;99677.97;5071225;28;20032;-76
2021/06/06 01:11:22;;;;;;;9.38;5.38;;;;;;;19.63;50.06;99684.16;5071167;28;20032;-76
2021/06/06 01:13:55;;;;;;;4.95;4.45;;;;;;;19.63;50.13;99683.31;5071091;28;20104;-76
2021/06/06 01:16:31;;;;;;;5.97;4.80;;;;;;;19.25;50.01;99630.19;5071240;28;20037;-76
2021/06/06 01:18:59;;;;;;;5.07;4.65;;;;;;;19.03;50.05;99603.97;5070983;28;20514;-76
2021/06/06 01:21:28;;;;;;;5.50;5.00;;;;;;;19.55;49.95;99672.97;5070991;28;20086;-75
2021/06/06 01:24:09;;;;;;;6.55;5.18;;;;;;;19.47;50.00;99674.09;5071088;28;20403;-76
2021/06/06 01:26:47;;;;;;;5.85;4.60;;;;;;;18.94;50.28;99610.72;5070819;28;20020;-75
2021/06/06 01:29:34;;;;;;;5.38;4.60;;;;;;;19.40;49.98;99675.25;5070763;28;20035;-75
2021/06/06 01:32:09;;;;;;;5.18;4.70;;;;;;;19.29;50.46;99675.00;5070940;28;20025;-76
2021/06/06 01:34:37;;;;;;;6.03;4.95;;;;;;;19.08;50.11;99648.78;5070800;28;20027;-76
2021/06/06 01:37:08;;;;;;;6.45;4.72;;;;;;;19.16;50.21;99653.78;5070728;28;20405;-76
2021/06/06 01:39:47;;;;;;;8.95;5.05;;;;;;;19.23;50.31;99675.09;5071071;28;20087;-76
2021/06/06 01:42:23;;;;;;;6.20;4.60;;;;;;;19.03;50.29;99638.78;5070853;28;20043;-76
2021/06/06 01:44:51;;;;;;;7.53;4.68;;;;;;;19.19;50.19;99661.38;5070979;28;20070;-75
2021/06/06 01:47:24;;;;;;;5.82;4.55;;;;;;;19.17;50.16;99666.13;5070888;28;20024;-75
2021/06/06 01:49:54;;;;;;;5.63;4.80;;;;;;;18.77;50.31;99614.31;5070562;28;20439;-76
2021/06/06 01:52:22;;;;;;;5.63;5.10;;;;;;;19.03;50.13;99648.66;5070767;28;20026;-75
2021/06/06 01:54:49;;;;;;;7.97;4.50;;;;;;;18.69;50.26;99597.53;5070838;28;20028;-75
2021/06/06 01:57:21;;;;;;;6.28;4.50;;;;;;;19.01;50.44;99648.88;5074700;28;20043;-75
2021/06/06 01:59:50;;;;;;;5.03;4.53;;;;;;;18.45;50.38;99576.25;5074322;28;20111;-75
2021/06/06 02:02:16;;;;;;;4.65;4.25;;;;;;;18.95;50.27;99657.84;5074189;28;20455;-76
2021/06/06 02:04:42;;;;;;;5.85;4.75;;;;;;;18.41;50.22;99586.59;5074113;28;20099;-75
2021/06/06 02:07:25;;;;;;;4.38;4.03;;;;;;;18.86;50.28;99661.91;5074228;28;20478;-76
2021/06/06 02:10:01;;;;;;;4.95;4.55;;;;;;;18.73;50.35;99640.69;5074200;28;20028;-75
2021/06/06 02:12:30;;;;;;;4.95;4.28;;;;;;;18.79;50.33;99655.81;5072699;28;20082;-75
2021/06/06 02:14:56;;;;;;;4.95;4.45;;;;;;;18.56;50.22;99629.75;5074052;28;20020;-75
2021/06/06 02:17:30;;;;;;;6.43;4.25;;;;;;;18.75;50.15;99667.22;5072655;28;20020;-76
2021/06/06 02:19:58;;;;;;;6.03;4.55;;;;;;;18.61;50.36;99663.88;5074061;28;20052;-76
2021/06/06 02:22:24;;;;;;;5.20;4.50;;;;;;;18.15;50.40;99613.69;5073739;28;20025;-76
2021/06/06 02:24:50;;;;;;;4.43;4.03;;;;;;;18.44;50.39;99661.00;5072230;28;20031;-76
2021/06/06 02:27:41;;;;;;;7.65;5.13;;;;;;;18.08;51.01;99619.94;5073518;28;20029;-76
2021/06/06 02:30:15;;;;;;;5.07;4.60;;;;;;;18.23;50.98;99654.28;5073582;28;20103;-76
2021/06/06 02:33:03;;;;;;;6.00;4.50;;;;;;;18.22;50.94;99659.84;5073528;28;20059;-76
2021/06/06 02:35:35;;;;;;;5.30;4.32;;;;;;;17.79;51.20;99585.94;5070837;28;20036;-76
2021/06/06 02:38:08;;;;;;;5.93;4.50;;;;;;;18.22;51.14;99649.16;5072062;28;20028;-75
2021/06/06 02:40:55;;;;;;;5.55;4.60;;;;;;;17.66;51.19;99572.72;5073344;28;20115;-75
2021/06/06 02:43:29;;;;;;;4.97;4.28;;;;;;;17.80;51.02;99592.91;5073323;28;20032;-75
2021/06/06 02:45:59;;;;;;;4.85;4.20;;;;;;;18.08;51.21;99653.84;5073537;28;20505;-75
2021/06/06 02:48:32;;;;;;;5.05;4.30;;;;;;;18.12;50.93;99652.38;5073175;28;20409;-73
2021/06/06 02:51:02;;;;;;;4.20;3.80;;;;;;;17.79;50.90;99596.63;5073185;28;20024;-74
2021/06/06 02:53:31;;;;;;;5.40;4.60;;;;;;;17.69;51.16;99597.16;5073298;28;20447;-75
2021/06/06 02:56:01;;;;;;;5.25;4.22;;;;;;;17.64;51.16;99596.16;5073245;28;20020;-77
2021/06/06 02:58:34;;;;;;;6.10;5.22;;;;;;;17.72;51.13;99596.72;5073041;28;20028;-76
2021/06/06 03:01:11;;;;;;;5.32;4.43;;;;;;;17.82;51.10;99601.53;5072963;28;20044;-76
2021/06/06 03:03:38;;;;;;;4.50;4.10;;;;;;;17.77;50.85;99583.50;5073013;28;20096;-76
2021/06/06 03:06:08;;;;;;;5.57;5.07;;;;;;;18.12;51.02;99636.31;5072771;28;20025;-75
2021/06/06 03:08:35;;;;;;;7.72;4.45;;;;;;;18.01;50.93;99639.75;5072958;28;20029;-75
2021/06/06 03:11:03;;;;;;;6.13;4.43;;;;;;;18.08;50.88;99635.97;5072651;28;20028;-76
2021/06/06 03:13:33;;;;;;;5.05;4.55;;;;;;;18.10;50.91;99644.56;5072810;28;20051;-76
2021/06/06 03:16:02;;;;;;;5.63;4.60;;;;;;;17.94;51.23;99647.84;5072908;28;20024;-76
2021/06/06 03:18:31;;;;;;;5.38;4.47;;;;;;;17.76;51.11;99629.13;5073153;28;20028;-77
2021/06/06 03:21:35;;;;;;;5.95;4.50;;;;;;;17.41;51.32;99581.63;5072975;28;20485;-76
2021/06/06 03:24:06;;;;;;;6.53;4.50;;;;;;;17.76;51.19;99653.97;5050631;28;20070;-75
2021/06/06 03:26:34;;;;;;;7.30;4.88;;;;;;;17.64;51.57;99642.38;5068681;28;20097;-75
2021/06/06 03:29:03;;;;;;;7.72;5.18;;;;;;;17.52;51.66;99654.00;5072443;28;20029;-76
2021/06/06 03:31:34;;;;;;;6.07;4.93;;;;;;;17.20;52.23;99638.06;5072283;28;20412;-76
2021/06/06 03:34:02;;;;;;;5.60;5.07;;;;;;;17.42;52.14;99659.84;5072374;28;20024;-75
2021/06/06 03:36:35;;;;;;;7.25;4.70;;;;;;;17.05;52.29;99584.19;5072476;28;20463;-76
2021/06/06 03:39:05;;;;;;;5.32;4.93;;;;;;;17.49;52.34;99647.25;5072275;28;20095;-76
2021/06/06 03:41:31;;;;;;;6.05;4.57;;;;;;;17.57;51.93;99652.28;5072291;28;20033;-76
2021/06/06 03:43:56;;;;;;;5.93;5.32;;;;;;;17.39;51.85;99615.72;5070948;28;20565;-76
2021/06/06 03:46:24;;;;;;;5.40;4.90;;;;;;;17.29;51.78;99582.56;5072168;28;20017;-76
2021/06/06 03:48:50;;;;;;;6.57;5.25;;;;;;;17.13;52.15;99573.28;5070958;28;20020;-75
2021/06/06 03:51:17;;;;;;;5.90;5.13;;;;;;;17.32;52.07;99598.94;5072321;28;20028;-76
2021/06/06 03:53:43;;;;;;;7.07;5.28;;;;;;;17.73;52.17;99643.72;5071041;28;20031;-74
2021/06/06 03:56:10;;;;;;;5.55;5.10;;;;;;;17.45;52.05;99604.16;5071797;28;20029;-75
2021/06/06 03:58:37;;;;;;;6.18;5.38;;;;;;;17.89;51.75;99641.53;5072062;28;20025;-77
2021/06/06 04:01:04;;;;;;;7.28;5.10;;;;;;;17.90;51.57;99643.19;5071855;28;20063;-76
2021/06/06 04:03:30;;;;;;;6.70;4.95;;;;;;;17.86;51.64;99640.13;5071733;28;20039;-76
2021/06/06 04:05:55;;;;;;;6.22;5.20;;;;;;;17.59;51.57;99590.66;5071828;28;20021;-76
2021/06/06 04:08:21;;;;;;;5.95;4.57;;;;;;;17.70;51.48;99612.13;5071752;28;20020;-76
2021/06/06 04:10:48;;;;;;;6.57;4.63;;;;;;;17.56;51.62;99578.59;5071709;28;20055;-75
2021/06/06 04:13:13;;;;;;;5.00;4.60;;;;;;;17.75;51.68;99608.78;5071669;28;20020;-77
2021/06/06 04:15:39;;;;;;;6.43;4.38;;;;;;;17.91;51.58;99623.44;5071590;28;20097;-76
2021/06/06 04:18:28;;;;;;;5.15;4.65;;;;;;;18.13;51.82;99640.63;5071123;28;20021;-76
2021/06/06 04:20:55;;;;;;;7.47;4.90;;;;;;;17.92;51.59;99607.19;5071758;28;20105;-75
2021/06/06 04:23:22;;;;;;;8.05;4.78;;;;;;;18.27;51.36;99644.75;5071841;28;20568;-76
2021/06/06 04:25:48;;;;;;;6.78;4.57;;;;;;;17.93;51.51;99584.78;5071535;28;20162;-75
2021/06/06 04:28:14;;;;;;;9.50;4.63;;;;;;;18.29;51.51;99633.84;5071657;28;20031;-76
2021/06/06 04:30:40;;;;;;;7.07;5.00;;;;;;;18.42;51.54;99645.19;5071648;28;20024;-75
2021/06/06 04:33:08;;;;;;;5.95;4.88;;;;;;;18.47;51.69;99646.34;5071569;28;20103;-75
2021/06/06 04:35:38;;;;;;;8.23;5.35;;;;;;;18.54;51.59;99639.06;5071429;28;20074;-75
2021/06/06 04:38:05;;;;;;;6.00;5.10;;;;;;;18.57;51.83;99638.59;5071366;28;20052;-76
2021/06/06 04:40:30;;;;;;;5.82;4.82;;;;;;;18.50;51.89;99633.34;5070088;28;20424;-77
2021/06/06 04:42:56;;;;;;;6.35;5.65;;;;;;;18.45;51.86;99611.00;5071416;28;20025;-76
2021/06/06 04:45:22;;;;;;;5.63;5.13;;;;;;;18.64;52.00;99634.03;5071136;28;20086;-76
2021/06/06 04:47:47;;;;;;;8.13;6.00;;;;;;;18.53;51.89;99602.66;5070956;28;20029;-76
2021/06/06 04:50:14;;;;;;;5.80;5.03;;;;;;;18.43;51.89;99565.78;5071265;28;20025;-75
2021/06/06 04:52:40;;;;;;;5.78;5.13;;;;;;;18.97;51.85;99642.38;5071179;28;20036;-76
2021/06/06 04:55:16;;;;;;;7.72;5.63;;;;;;;18.98;51.98;99627.94;5071112;28;20032;-76
2021/06/06 04:57:41;;;;;;;6.88;5.90;;;;;;;18.79;51.71;99572.91;5071078;28;20535;-76
2021/06/06 05:00:11;;;;;;;5.93;5.43;;;;;;;19.21;51.78;99627.16;5070006;28;20028;-75
2021/06/06 05:02:36;;;;;;;6.70;6.10;;;;;;;19.21;51.71;99631.69;5071254;28;20090;-76
2021/06/06 05:05:02;;;;;;;10.02;6.65;;;;;;;19.00;51.58;99595.59;5071175;28;20025;-75
2021/06/06 05:07:28;;;;;;;6.80;6.07;;;;;;;18.97;51.54;99572.81;5071222;28;20021;-75
2021/06/06 05:09:53;;;;;;;7.03;5.75;;;;;;;19.38;51.61;99639.88;5071102;28;20048;-76
2021/06/06 05:12:19;;;;;;;6.55;5.60;;;;;;;19.09;51.29;99598.75;5069781;28;20566;-76
2021/06/06 05:14:44;;;;;;;9.18;5.50;;;;;;;19.46;51.08;99642.19;5071436;28;20098;-76
2021/06/06 05:17:10;;;;;;;7.38;6.32;;;;;;;19.50;51.04;99638.00;5071343;28;20013;-76
2021/06/06 05:19:35;;;;;;;7.05;6.35;;;;;;;19.14;50.77;99572.91;5071120;28;20016;-77
2021/06/06 05:22:01;;;;;;;5.68;5.20;;;;;;;19.41;50.45;99597.38;5070976;28;20111;-76
2021/06/06 05:24:26;;;;;;;6.28;5.43;;;;;;;19.01;50.16;99520.44;5070931;28;20035;-76
2021/06/06 05:26:51;;;;;;;5.35;4.93;;;;;;;19.72;50.03;99624.84;5070773;28;20150;-75
2021/06/06 05:29:17;;;;;;;10.60;5.55;;;;;;;19.85;50.04;99643.34;5070791;28;20077;-76
2021/06/06 05:31:43;;;;;;;5.82;4.60;;;;;;;19.62;49.72;99610.19;5074082;28;20025;-75
2021/06/06 05:34:08;;;;;;;5.95;5.35;;;;;;;19.60;49.98;99588.19;5074734;28;20031;-76
2021/06/06 05:36:35;;;;;;;5.85;5.35;;;;;;;19.71;49.64;99604.47;5074370;28;20027;-76
2021/06/06 05:39:03;;;;;;;9.07;6.47;;;;;;;20.00;49.43;99649.84;5074377;28;20103;-75
2021/06/06 05:41:28;;;;;;;8.60;6.57;;;;;;;20.10;49.24;99649.25;5074441;28;20024;-76
2021/06/06 05:43:53;;;;;;;7.78;6.95;;;;;;;20.15;48.99;99641.31;5074580;28;20028;-76
2021/06/06 05:46:19;;;;;;;6.78;5.70;;;;;;;19.82;48.93;99596.41;5074232;28;20056;-77
2021/06/06 05:48:45;;;;;;;6.45;5.55;;;;;;;20.18;48.82;99638.16;5074373;28;20398;-76
2021/06/06 05:51:11;;;;;;;5.72;5.03;;;;;;;19.84;48.54;99566.69;5074382;28;20017;-74
2021/06/06 05:53:37;;;;;;;6.45;5.05;;;;;;;20.00;48.36;99582.03;5074424;28;20024;-77
2021/06/06 05:56:04;;;;;;;5.43;4.93;;;;;;;20.33;48.32;99618.06;5074222;28;20021;-76
2021/06/06 05:58:31;;;;;;;6.25;5.00;;;;;;;20.49;48.04;99636.91;5074443;28;20078;-77
2021/06/06 06:00:56;;;;;;;6.72;4.93;;;;;;;20.07;48.07;99563.16;5074124;28;20024;-76
2021/06/06 06:03:21;;;;;;;9.13;5.00;;;;;;;20.45;48.14;99619.66;5074171;28;20016;-76
2021/06/06 06:05:48;;;;;;;5.85;5.28;;;;;;;20.39;47.89;99604.53;5072597;28;20420;-74
2021/06/06 06:08:18;;;;;;;6.22;4.97;;;;;;;20.67;47.61;99638.56;5074094;28;20028;-75
2021/06/06 06:10:44;;;;;;;6.07;4.90;;;;;;;20.56;47.33;99618.78;5074346;28;20020;-76
2021/06/06 06:13:10;;;;;;;6.25;4.93;;;;;;;20.21;47.30;99577.91;5074347;28;20032;-77
2021/06/06 06:15:36;;;;;;;6.35;5.15;;;;;;;20.21;47.54;99553.75;5072822;28;20024;-75
2021/06/06 06:18:01;;;;;;;5.38;4.88;;;;;;;20.77;47.25;99641.44;5073845;28;20044;-75
2021/06/06 06:20:27;;;;;;;5.60;5.13;;;;;;;20.81;47.20;99631.88;5073833;28;20031;-75
2021/06/06 06:22:52;;;;;;;7.20;5.20;;;;;;;20.98;47.24;99655.22;5073767;28;20032;-74
2021/06/06 06:25:19;;;;;;;6.25;5.50;;;;;;;20.69;47.26;99601.56;5073751;28;20560;-73
2021/06/06 06:27:45;;;;;;;6.07;4.68;;;;;;;20.98;47.12;99658.72;5073930;28;20021;-75
2021/06/06 06:30:14;;;;;;;5.97;5.30;;;;;;;21.00;47.57;99655.78;5073697;28;20025;-76
2021/06/06 06:32:41;;;;;;;6.00;5.20;;;;;;;21.06;47.74;99650.25;5073751;28;20390;-76
2021/06/06 06:35:08;;;;;;;5.22;4.60;;;;;;;20.94;47.80;99614.63;5073814;28;20528;-76
2021/06/06 06:37:33;;;;;;;5.18;4.78;;;;;;;20.85;47.61;99582.03;5073853;28;20386;-76
2021/06/06 06:39:59;;;;;;;5.65;5.13;;;;;;;21.28;47.60;99634.25;5072172;28;20034;-76
2021/06/06 06:42:24;;;;;;;6.53;5.30;;;;;;;20.82;47.43;99554.84;5071741;28;20103;-77
2021/06/06 06:44:50;;;;;;;5.15;4.70;;;;;;;21.45;47.11;99637.72;5072119;28;20467;-75
2021/06/06 06:47:15;;;;;;;5.53;5.05;;;;;;;21.24;46.88;99590.16;5073127;28;20028;-74
2021/06/06 06:49:42;;;;;;;5.00;4.50;;;;;;;21.56;46.88;99636.84;5073125;28;20406;-73
2021/06/06 06:52:08;;;;;;;5.82;5.22;;;;;;;21.32;46.77;99579.00;5073624;28;20081;-77
2021/06/06 06:54:34;;;;;;;5.72;4.70;;;;;;;21.49;46.47;99606.63;5073260;28;20390;-74
2021/06/06 06:56:59;;;;;;;7.40;5.07;;;;;;;21.64;46.20;99627.56;5073076;28;20024;-77
2021/06/06 06:59:28;;;;;;;6.82;4.65;;;;;;;21.24;46.06;99558.75;5073191;28;20067;-76
2021/06/06 07:01:55;;;;;;;4.97;4.57;;;;;;;21.73;45.69;99631.44;5072887;28;20038;-76
2021/06/06 07:04:21;;;;;;;8.05;4.70;;;;;;;21.52;45.16;99600.75;5072982;28;20075;-77
2021/06/06 07:06:51;;;;;;;5.05;4.18;;;;;;;21.41;44.79;99577.50;5072869;28;20493;-76
2021/06/06 07:09:16;;;;;;;4.95;4.45;;;;;;;21.83;44.63;99628.06;5073098;28;20070;-76
2021/06/06 07:11:42;;;;;;;5.70;3.85;;;;;;;21.79;44.42;99611.63;5073190;28;20025;-77
2021/06/06 07:14:08;;;;;;;5.05;3.90;;;;;;;21.75;44.32;99582.81;5071612;28;20511;-76
2021/06/06 07:16:33;;;;;;;6.45;4.63;;;;;;;21.38;44.37;99513.53;5073037;28;20070;-74
2021/06/06 07:18:58;;;;;;;4.28;3.88;;;;;;;22.14;44.20;99619.34;5072817;28;20024;-77
2021/06/06 07:21:24;;;;;;;5.50;4.65;;;;;;;22.03;44.04;99579.13;5072911;28;20020;-76
2021/06/06 07:23:51;;;;;;;5.72;4.60;;;;;;;22.25;44.14;99603.31;5072708;28;20030;-76
2021/06/06 07:26:33;;;;;;;6.00;4.55;;;;;;;22.38;43.80;99617.19;5072222;28;20401;-76
2021/06/06 07:29:00;;;;;;;;;;;;;;;22.29;43.90;99617.88;5072866;28;20048;-75
2021/06/06 07:31:26;;;;;;;5.85;4.22;;;;;;;22.43;43.98;99617.25;5072700;28;20421;-75
2021/06/06 07:33:51;;;;;;;5.55;4.82;;;;;;;22.50;43.88;99611.66;5072599;28;20035;-75
2021/06/06 07:36:19;;;;;;;8.02;5.53;;;;;;;22.60;43.78;99619.03;5072487;28;20013;-76
2021/06/06 07:38:50;;;;;;;10.57;5.70;;;;;;;22.36;43.63;99588.94;5072440;28;20107;-77
2021/06/06 07:41:18;;;;;;;10.50;5.25;;;;;;;22.70;43.27;99617.25;5072275;28;20035;-76
2021/06/06 07:43:43;;;;;;;6.30;4.80;;;;;;;22.69;43.05;99593.28;5070978;28;20029;-75
2021/06/06 07:46:09;;;;;;;5.10;4.40;;;;;;;22.50;43.01;99549.78;5072078;28;20074;-75
2021/06/06 07:48:34;;;;;;;5.78;4.80;;;;;;;22.87;42.92;99590.22;5070953;28;20133;-74
2021/06/06 07:50:59;;;;;;;8.32;5.32;;;;;;;;;;5072254;28;20030;-74
2021/06/06 07:53:25;;;;;;;7.18;4.88;;;;;;;23.21;42.56;99606.13;5071326;28;20412;-77
2021/06/06 07:55:53;;;;;;;6.38;4.68;;;;;;;23.29;42.19;99611.84;5071963;28;20036;-76
2021/06/06 07:58:27;;;;;;;7.28;5.03;;;;;;;23.23;42.20;99583.25;5071843;28;20025;-74
2021/06/06 08:00:53;;;;;;;5.03;4.03;;;;;;;23.43;42.08;99607.59;5070579;28;20474;-75
2021/06/06 08:03:18;;;;;;;4.93;4.53;;;;;;;23.54;42.05;99607.66;5072212;28;20054;-76
2021/06/06 08:05:45;;;;;;;5.93;4.85;;;;;;;23.30;41.86;99554.19;5071894;28;20560;-75
2021/06/06 08:08:13;;;;;;;5.65;4.35;;;;;;;23.50;41.43;99577.72;5070604;28;20036;-76
2021/06/06 08:10:41;;;;;;;5.20;4.35;;;;;;;23.58;41.39;99585.34;5071934;28;20031;-75
2021/06/06 08:13:07;;;;;;;4.85;4.40;;;;;;;23.72;41.24;99594.59;5071691;28;20028;-72
2021/06/06 08:15:33;;;;;;;5.43;4.32;;;;;;;23.50;41.32;99552.66;5071641;28;20085;-76
2021/06/06 08:18:04;;;;;;;4.78;4.38;;;;;;;23.93;41.13;99602.78;5071625;28;20028;-76
2021/06/06 08:20:34;;;;;;;7.75;3.80;;;;;;;23.86;40.42;99581.44;5071595;28;20055;-75
2021/06/06 08:23:00;;;;;;;5.25;3.75;;;;;;;24.04;40.54;99602.56;5070277;28;20086;-75
2021/06/06 08:25:25;;;;;;;5.15;4.32;;;;;;;24.12;40.13;99597.72;5071541;28;20021;-74
2021/06/06 08:27:52;;;;;;;6.90;4.28;;;;;;;23.77;39.73;99531.78;5070210;28;20032;-74
2021/06/06 08:30:31;;;;;;;4.78;4.30;;;;;;;24.11;39.48;99579.91;5071633;28;20089;-74
2021/06/06 08:32:56;;;;;;;5.13;4.40;;;;;;;23.92;39.37;99541.84;5071628;28;20024;-77
2021/06/06 08:35:22;;;;;;;4.95;4.55;;;;;;;24.12;39.14;99541.88;5071459;28;20132;-76
2021/06/06 08:37:48;;;;;;;4.88;4.20;;;;;;;24.52;39.25;99587.03;5071415;28;20030;-76
2021/06/06 08:40:25;;;;;;;5.10;4.60;;;;;;;24.68;39.43;99593.28;5071245;28;20056;-76
2021/06/06 08:42:50;;;;;;;4.70;4.30;;;;;;;24.78;38.97;99578.97;5071611;28;20058;-75
2021/06/06 08:45:24;;;;;;;5.05;4.55;;;;;;;24.95;39.04;99580.31;5070179;28;20115;-76
2021/06/06 08:47:50;;;;;;;5.20;4.70;;;;;;;24.66;38.37;99514.44;5071498;28;20033;-76
2021/06/06 08:50:26;;;;;;;4.18;3.85;;;;;;;24.93;38.34;99538.47;5071172;28;20443;-74
2021/06/06 08:53:04;;;;;;;6.25;4.45;;;;;;;25.37;37.47;99581.94;5070033;28;20020;-74
2021/06/06 08:55:32;;;;;;;6.40;4.50;;;;;;;25.46;37.62;99580.28;5071419;28;20024;-76
2021/06/06 08:58:30;;;;;;;4.53;3.85;;;;;;;25.61;37.19;99580.25;5071310;28;20462;-76
2021/06/06 09:01:10;;;;;;;5.10;4.60;;;;;;;25.75;36.76;99577.78;5069069;28;20524;-76
2021/06/06 09:03:36;;;;;;;6.38;4.82;;;;;;;25.83;36.89;99579.09;5071188;28;20631;-76
2021/06/06 09:06:31;;;;;;;5.80;5.20;;;;;;;25.67;36.83;99529.69;5074949;28;20023;-76
2021/06/06 09:08:58;;;;;;;5.70;4.65;;;;;;;26.18;36.33;99576.25;5075303;28;20028;-75
2021/06/06 09:11:29;;;;;;;12.85;4.25;;;;;;;26.02;35.81;99520.59;5075589;28;20024;-76
2021/06/06 09:13:55;;;;;;;8.18;4.82;;;;;;;26.21;35.73;99523.44;5075545;28;20096;-75
2021/06/06 09:16:26;;;;;;;5.78;4.30;;;;;;;26.63;35.23;99562.69;5075151;28;20028;-76
2021/06/06 09:19:05;;;;;;;5.18;4.25;;;;;;;26.77;34.79;99571.81;5075184;28;20027;-74
2021/06/06 09:21:32;;;;;;;4.68;4.28;;;;;;;26.72;34.82;99547.44;5073427;28;20063;-75
2021/06/06 09:24:10;;;;;;;7.43;5.10;;;;;;;26.73;34.27;99513.84;5074921;28;20021;-75
2021/06/06 09:26:36;;;;;;;4.55;4.00;;;;;;;26.92;34.20;99528.34;5074830;28;20111;-75
2021/06/06 09:29:17;;;;;;;6.32;5.68;;;;;;;27.29;34.13;99543.16;5074922;28;20060;-75
2021/06/06 09:31:43;;;;;;;4.75;4.35;;;;;;;27.38;33.61;99536.00;5074789;28;20029;-75
2021/06/06 09:34:15;;;;;;;6.55;5.47;;;;;;;27.69;33.69;99555.50;5074730;28;20024;-73
2021/06/06 09:36:57;;;;;;;11.02;8.88;;;;;;;27.73;33.44;99546.47;5074557;28;20503;-75
2021/06/06 09:39:24;;;;;;;;;;;;;;;27.96;33.46;99552.97;5074844;28;20531;-73
2021/06/06 09:41:51;;;;;;;5.18;4.45;;;;;;;28.12;33.22;99551.66;5074717;28;19908;-74
2021/06/06 09:44:16;;;;;;;6.07;5.10;;;;;;;28.29;32.94;99545.75;5074573;28;20012;-74
2021/06/06 09:46:52;;;;;;;6.93;4.68;;;;;;;28.17;33.00;99504.59;5074287;28;20405;-76
2021/06/06 09:49:31;;;;;;;5.85;5.28;;;;;;;28.70;31.76;99545.91;5074271;28;20478;-75
2021/06/06 09:52:18;;;;;;;7.20;4.20;;;;;;;28.88;32.00;99540.75;5072792;28;20025;-77
2021/06/06 09:54:47;;;;;;;5.45;4.95;;;;;;;29.07;31.73;99546.94;5071766;28;20191;-76
2021/06/06 09:57:45;;;;;;;5.00;4.50;;;;;;;29.21;31.27;99536.91;5074316;28;20555;-73
2021/06/06 10:00:34;;;;;;;4.95;4.55;;;;;;;29.12;31.21;99488.97;5062282;28;20115;-74
2021/06/06 10:03:05;;;;;;;7.28;5.18;;;;;;;29.48;31.26;99522.53;5074070;28;20056;-75
2021/06/06 10:05:34;;;;;;;;;;;;;;;29.51;31.49;99518.38;5073291;28;20032;-73
2021/06/06 10:08:06;;;;;;;8.10;5.03;;;;;;;29.55;29.95;99522.91;5074187;28;19918;-76
2021/06/06 10:10:42;;;;;;;10.75;8.85;;;;;;;29.61;30.85;99513.53;5072863;28;20035;-74
2021/06/06 10:13:12;;;;;;;5.60;5.10;;;;;;;29.40;30.66;99457.91;5074040;28;20043;-75
2021/06/06 10:15:42;;;;;;;6.57;5.85;;;;;;;29.99;29.54;99510.56;5073364;28;20111;-75
2021/06/06 10:18:31;;;;;;;5.07;4.10;;;;;;;30.16;28.94;99515.38;5074002;28;20128;-74
2021/06/06 10:21:03;;;;;;;5.97;4.63;;;;;;;30.06;29.11;99481.03;5072475;28;20115;-76
2021/06/06 10:23:34;;;;;;;5.50;5.00;;;;;;;30.33;29.30;99508.16;5072524;28;20501;-75
2021/06/06 10:26:07;;;;;;;4.50;4.07;;;;;;;30.39;28.80;99505.28;5073517;28;20101;-74
2021/06/06 10:28:45;;;;;;;6.53;5.32;;;;;;;30.19;28.74;99471.19;5073620;28;20039;-75
2021/06/06 10:31:37;;;;;;;4.20;3.88;;;;;;;30.55;27.02;99503.84;5072557;28;20043;-76
2021/06/06 10:34:02;;;;;;;7.25;6.20;;;;;;;30.65;27.52;99498.97;5073670;28;20017;-75
2021/06/06 10:36:31;;;;;;;4.40;3.45;;;;;;;30.67;26.54;99502.19;5072258;28;20408;-75
2021/06/06 10:38:57;;;;;;;7.28;3.92;;;;;;;30.64;26.47;99491.09;5073536;28;20028;-75
2021/06/06 10:41:36;;;;;;;4.43;3.42;;;;;;;30.48;26.28;99441.59;5072157;28;20390;-74
2021/06/06 10:44:24;;;;;;;4.28;3.70;;;;;;;30.49;25.67;99415.16;5073396;28;20021;-75
2021/06/06 10:46:55;;;;;;;8.23;7.43;;;;;;;30.85;26.28;99445.03;5073223;28;20028;-74
2021/06/06 10:49:35;;;;;;;6.10;4.10;;;;;;;31.34;25.15;99481.34;5073140;28;20021;-75
2021/06/06 10:52:19;;;;;;;5.22;2.70;;;;;;;31.22;25.24;99484.69;5073415;28;20028;-74
2021/06/06 10:54:51;;;;;;;5.25;4.07;;;;;;;30.85;24.52;99402.19;5073178;28;20024;-74
2021/06/06 10:57:26;;;;;;;3.15;2.80;;;;;;;31.52;24.24;99482.97;5072919;28;20099;-75
2021/06/06 11:00:17;;;;;;;5.70;5.20;;;;;;;31.29;24.30;99425.81;5073223;28;20025;-74
2021/06/06 11:03:00;;;;;;;3.50;2.97;;;;;;;31.72;23.29;99470.69;5072990;28;20430;-74
2021/06/06 11:05:35;;;;;;;3.35;3.10;;;;;;;31.73;23.97;99469.56;5073018;28;20024;-74
2021/06/06 11:08:00;;;;;;;3.28;3.08;;;;;;;31.50;24.29;99408.81;5072902;28;20031;-74
2021/06/06 11:10:25;;;;;;;3.88;3.33;;;;;;;31.69;24.42;99461.16;5072890;28;20103;-74
2021/06/06 11:12:56;;;;;;;11.38;3.67;;;;;;;31.43;24.63;99406.56;5072837;28;20519;-74
2021/06/06 11:15:59;;;;;;;4.28;3.75;;;;;;;31.91;24.57;99454.78;5072982;28;20021;-74
2021/06/06 11:18:26;;;;;;;4.20;3.80;;;;;;;32.15;24.48;99449.66;5072693;28;20016;-75
2021/06/06 11:20:59;;;;;;;4.63;3.15;;;;;;;32.33;23.96;99444.19;5080066;28;20500;-75
2021/06/06 11:23:42;;;;;;;4.13;3.60;;;;;;;32.54;23.02;99440.44;5082888;28;20412;-75
2021/06/06 11:26:18;;;;;;;3.95;3.30;;;;;;;32.65;22.94;99435.41;5085827;28;20054;-74
2021/06/06 11:28:45;;;;;;;3.20;2.90;;;;;;;32.68;22.73;99437.50;5081496;28;20024;-72
2021/06/06 11:31:30;;;;;;;5.18;3.08;;;;;;;32.33;22.39;99428.59;5077513;28;20017;-73
2021/06/06 11:34:04;;;;;;;4.63;3.30;;;;;;;31.75;22.18;99393.59;5073110;28;20033;-74
2021/06/06 11:36:29;;;;;;;4.05;3.42;;;;;;;32.24;23.18;99427.81;5082882;28;20020;-75
2021/06/06 11:38:55;;;;;;;3.78;3.47;;;;;;;32.30;22.90;99401.94;5089327;28;20077;-74
2021/06/06 11:41:37;;;;;;;3.80;3.00;;;;;;;32.65;21.88;99434.63;5092268;28;20093;-75
2021/06/06 11:44:41;;;;;;;4.03;2.78;;;;;;;32.55;21.59;99430.31;5092371;28;20077;-74
2021/06/06 11:47:10;;;;;;;3.70;3.10;;;;;;;32.31;21.75;99395.34;5084129;28;20115;-75
2021/06/06 11:49:41;;;;;;;3.83;3.20;;;;;;;32.70;22.11;99418.88;5084862;28;20054;-75